Time;durP1;ratioP1;P1;durP2;ratioP2;P2;SDS_P1;SDS_P2;PMS_P1;PMS_P2;Temp;Humidity;BMP_temperature;BMP_pressure;BME280_temperature;BME280_humidity;BME280_pressure;Samples;Min_cycle;Max_cycle;Signal;HPM_P1;HPM_P2
2022/11/12 00:01:04;;;;;;;7.30;5.65;;;;;;;6.22;90.01;102389.84;6120258;23;20029;-78
2022/11/12 00:04:26;;;;;;;8.57;5.57;;;;;;;6.17;89.98;102396.78;6120167;23;20090;-77
2022/11/12 00:07:48;;;;;;;8.52;5.50;;;;;;;6.13;90.16;102384.69;6116856;23;20523;-78
2022/11/12 00:11:10;;;;;;;7.70;4.88;;;;;;;6.14;90.09;102391.59;6120450;23;20021;-78
2022/11/12 00:14:32;;;;;;;7.15;5.18;;;;;;;6.13;90.66;102395.09;6120762;23;20393;-78
2022/11/12 00:17:55;;;;;;;6.15;5.03;;;;;;;6.43;89.07;102393.22;6120218;23;20468;-78
2022/11/12 00:21:19;;;;;;;6.22;4.80;;;;;;;6.23;89.51;102396.75;6121662;23;20388;-78
2022/11/12 00:24:41;;;;;;;6.00;5.03;;;;;;;6.27;89.07;102403.66;6121705;23;20427;-78
2022/11/12 00:28:06;;;;;;;6.63;5.43;;;;;;;6.42;88.66;102405.34;6120708;23;20405;-78
2022/11/12 00:31:27;;;;;;;6.53;4.90;;;;;;;6.44;88.70;102403.56;6121545;23;20056;-78
2022/11/12 00:34:50;;;;;;;9.45;4.13;;;;;;;6.25;89.62;102404.53;6105964;23;20025;-78
2022/11/12 00:38:12;;;;;;;7.35;4.57;;;;;;;6.35;88.99;102400.16;6121348;23;20033;-78
2022/11/12 00:41:34;;;;;;;5.95;3.95;;;;;;;6.22;89.60;102408.03;6120511;23;20032;-78
2022/11/12 00:44:56;;;;;;;6.38;4.43;;;;;;;6.24;89.52;102402.81;6121016;23;20399;-78
2022/11/12 00:48:18;;;;;;;5.93;4.93;;;;;;;6.29;89.45;102412.31;6119392;23;20033;-78
2022/11/12 00:51:41;;;;;;;5.90;4.40;;;;;;;6.37;89.40;102404.50;6120691;23;20029;-78
2022/11/12 00:55:03;;;;;;;6.57;5.07;;;;;;;6.47;88.58;102410.50;6121816;23;20104;-78
2022/11/12 00:58:28;;;;;;;6.30;4.18;;;;;;;6.24;89.45;102413.22;6121567;23;20079;-78
2022/11/12 01:01:50;;;;;;;4.90;4.18;;;;;;;6.28;89.57;102410.56;6119104;23;20064;-78
2022/11/12 01:05:13;;;;;;;5.22;4.28;;;;;;;6.29;88.74;102412.31;6120713;23;20076;-78
2022/11/12 01:08:37;;;;;;;4.00;3.33;;;;;;;6.33;88.63;102410.56;6121233;23;20109;-78
2022/11/12 01:11:59;;;;;;;5.10;3.88;;;;;;;6.44;87.48;102410.50;6107462;23;20420;-78
2022/11/12 01:15:22;;;;;;;4.88;4.00;;;;;;;6.35;87.10;102410.56;6119410;23;20068;-78
2022/11/12 01:18:44;;;;;;;4.85;4.18;;;;;;;6.35;87.01;102411.44;6121000;23;20084;-78
2022/11/12 01:22:07;;;;;;;5.93;3.87;;;;;;;6.37;86.38;102408.81;6121576;23;20067;-78
2022/11/12 01:25:28;;;;;;;6.75;5.35;;;;;;;6.25;86.12;102410.63;6121447;23;20129;-78
2022/11/12 01:28:50;;;;;;;7.18;6.43;;;;;;;6.07;87.53;102409.81;6121252;23;20036;-78
2022/11/12 01:32:13;;;;;;;7.30;6.13;;;;;;;6.16;86.85;102413.25;6121139;23;20052;-78
2022/11/12 01:35:35;;;;;;;12.60;8.82;;;;;;;6.19;86.09;102405.44;6119503;23;20341;-78
2022/11/12 01:38:57;;;;;;;12.18;8.45;;;;;;;6.18;86.12;102411.50;6121322;23;20093;-78
2022/11/12 01:42:24;;;;;;;8.93;6.78;;;;;;;6.20;86.17;102401.97;6121459;23;20085;-78
2022/11/12 01:45:50;;;;;;;7.93;4.78;;;;;;;6.05;86.72;102402.88;6119826;23;20057;-78
2022/11/12 01:49:20;;;;;;;7.88;4.43;;;;;;;5.90;87.09;102404.63;6118768;23;20472;-78
2022/11/12 01:52:49;;;;;;;5.95;3.10;;;;;;;6.06;86.83;102403.75;6120598;23;20104;-78
2022/11/12 01:56:13;;;;;;;3.78;2.97;;;;;;;6.07;85.77;102400.31;6119608;23;20033;-78
2022/11/12 01:59:43;;;;;;;6.18;4.20;;;;;;;6.10;86.39;102410.69;6117581;23;20076;-78
2022/11/12 02:03:21;;;;;;;6.28;3.90;;;;;;;5.92;86.98;102406.34;6117622;23;20404;-78
2022/11/12 02:06:46;;;;;;;4.75;3.38;;;;;;;5.94;87.19;102414.19;6118521;23;20037;-78
2022/11/12 02:10:09;;;;;;;9.98;5.65;;;;;;;6.10;86.13;102413.28;6105975;23;20542;-78
2022/11/12 02:17:32;;;;;;;14.02;7.38;;;;;;;6.12;85.07;102414.09;6057736;23;20060;-78
2022/11/12 02:20:57;;;;;;;11.00;5.45;;;;;;;5.94;86.44;102411.59;6072875;23;20475;-78
2022/11/12 02:24:20;;;;;;;11.10;7.18;;;;;;;5.95;85.94;102402.94;6120924;23;20075;-78
2022/11/12 02:27:42;;;;;;;12.27;5.97;;;;;;;5.65;87.20;102402.13;6120968;23;20032;-78
2022/11/12 02:31:05;;;;;;;6.88;4.32;;;;;;;5.70;87.16;102395.16;6119589;23;20041;-78
2022/11/12 02:34:27;;;;;;;12.43;7.03;;;;;;;5.85;87.20;102388.22;6118031;23;20075;-78
2022/11/12 02:37:50;;;;;;;8.02;4.60;;;;;;;5.94;86.71;102393.44;6120475;23;20045;-78
2022/11/12 02:41:13;;;;;;;19.90;13.43;;;;;;;5.96;86.08;102395.13;6120912;23;20089;-78
2022/11/12 02:44:35;;;;;;;6.35;4.75;;;;;;;5.81;86.87;102398.63;6120729;23;20132;-78
2022/11/12 02:47:58;;;;;;;6.82;4.88;;;;;;;5.82;86.64;102396.88;6120379;23;20044;-78
2022/11/12 02:51:20;;;;;;;5.68;4.53;;;;;;;5.90;86.80;102402.03;6120844;23;20056;-78
2022/11/12 02:54:42;;;;;;;6.35;4.70;;;;;;;5.95;85.98;102402.94;6120768;23;20028;-78
2022/11/12 02:58:05;;;;;;;8.23;5.97;;;;;;;5.92;85.53;102400.31;6121079;23;20079;-78
2022/11/12 03:01:27;;;;;;;8.00;4.23;;;;;;;5.85;85.67;102388.22;6120768;23;20101;-78
2022/11/12 03:04:49;;;;;;;9.93;6.65;;;;;;;5.79;86.24;102383.91;6120841;23;20075;-78
2022/11/12 03:08:12;;;;;;;17.00;8.35;;;;;;;5.70;87.10;102397.75;6120242;23;20025;-78
2022/11/12 03:11:35;;;;;;;5.35;3.88;;;;;;;5.58;87.89;102395.19;6118953;23;20021;-78
2022/11/12 03:14:58;;;;;;;4.35;3.00;;;;;;;5.66;87.56;102388.25;6120372;23;20051;-78
2022/11/12 03:18:20;;;;;;;4.43;3.38;;;;;;;5.62;87.73;102383.94;6120629;23;20025;-78
2022/11/12 03:21:42;;;;;;;4.50;3.40;;;;;;;5.90;86.37;102386.44;6118777;23;20080;-78
2022/11/12 03:25:06;;;;;;;5.75;4.18;;;;;;;5.72;86.73;102385.66;6120505;23;20151;-78
2022/11/12 03:28:29;;;;;;;5.63;4.20;;;;;;;5.71;87.00;102385.63;6120619;23;20398;-78
2022/11/12 03:31:51;;;;;;;5.00;3.63;;;;;;;5.67;86.89;102389.97;6120813;23;20522;-78
2022/11/12 03:35:13;;;;;;;5.78;3.45;;;;;;;5.51;87.55;102399.50;6119180;22;20064;-78
2022/11/12 03:38:36;;;;;;;6.72;3.78;;;;;;;5.77;86.18;102394.28;6119525;23;20571;-78
2022/11/12 03:41:58;;;;;;;5.55;3.75;;;;;;;5.59;87.14;102391.75;6120467;23;20100;-78
2022/11/12 03:45:23;;;;;;;5.45;4.00;;;;;;;5.67;86.51;102389.97;6120472;23;20025;-78
2022/11/12 03:48:46;;;;;;;5.22;3.58;;;;;;;5.64;86.47;102389.97;6121655;23;20105;-78
2022/11/12 03:52:08;;;;;;;4.60;3.55;;;;;;;5.46;88.15;102396.09;6120718;23;20025;-78
2022/11/12 03:55:30;;;;;;;4.13;2.92;;;;;;;5.57;87.89;102391.72;6121528;23;20748;-78
2022/11/12 03:58:54;;;;;;;4.78;3.28;;;;;;;5.51;87.45;102388.28;6122068;23;20071;-78
2022/11/12 04:02:16;;;;;;;4.63;3.20;;;;;;;5.47;87.14;102386.56;6121783;23;20101;-78
2022/11/12 04:09:18;;;;;;;5.55;3.17;;;;;;;5.46;87.13;102384.84;6121803;23;20056;-78
2022/11/12 04:23:44;;;;;;;3.97;2.63;;;;;;;5.39;86.46;102381.38;6121435;23;20060;-78
2022/11/12 04:27:28;;;;;;;3.95;2.33;;;;;;;5.33;85.99;102379.66;6121201;23;20037;-78
2022/11/12 04:30:50;;;;;;;6.25;2.90;;;;;;;5.19;87.32;102372.75;6121434;23;20021;-78
2022/11/12 04:34:30;;;;;;;3.63;2.63;;;;;;;5.35;87.13;102377.06;6120122;23;20028;-78
2022/11/12 04:37:52;;;;;;;4.05;2.60;;;;;;;5.46;85.95;102382.25;6121347;23;20075;-78
2022/11/12 04:45:03;;;;;;;3.75;2.63;;;;;;;5.53;85.30;102371.00;6121463;23;20124;-78
2022/11/12 04:48:26;;;;;;;3.50;2.28;;;;;;;5.46;85.12;102371.88;6121313;23;20346;-77
2022/11/12 04:52:04;;;;;;;3.92;2.58;;;;;;;5.50;85.05;102381.38;6121192;23;20048;-78
2022/11/12 04:55:26;;;;;;;3.28;2.20;;;;;;;5.40;85.60;102384.84;6121441;23;20025;-78
2022/11/12 04:58:49;;;;;;;3.70;2.20;;;;;;;5.38;85.29;102382.25;6118948;23;20057;-78
2022/11/12 05:02:11;;;;;;;3.60;2.33;;;;;;;5.28;85.55;102376.19;6121155;23;20029;-78
2022/11/12 05:05:33;;;;;;;5.32;2.28;;;;;;;5.22;85.83;102378.78;6121589;23;20028;-78
2022/11/12 05:08:56;;;;;;;3.67;2.10;;;;;;;5.20;86.00;102388.31;6121298;23;20147;-77
2022/11/12 05:12:18;;;;;;;2.97;1.92;;;;;;;5.26;85.29;102377.91;6119185;23;20075;-78
2022/11/12 05:15:43;;;;;;;3.92;1.92;;;;;;;5.20;85.25;102372.75;6118542;23;20357;-78
2022/11/12 05:19:06;;;;;;;3.40;2.50;;;;;;;5.25;85.27;102380.53;6121408;23;20452;-77
2022/11/12 05:22:29;;;;;;;5.93;2.28;;;;;;;5.28;84.69;102381.38;6121077;23;20112;-77
2022/11/12 05:25:52;;;;;;;3.78;2.30;;;;;;;5.32;84.11;102380.50;6121140;23;20404;-78
2022/11/12 05:29:16;;;;;;;3.00;2.08;;;;;;;5.35;84.25;102377.91;6120222;23;20056;-78
2022/11/12 05:32:38;;;;;;;3.15;2.08;;;;;;;5.20;84.15;102372.75;6117119;23;20126;-78
2022/11/12 05:36:01;;;;;;;2.92;1.83;;;;;;;5.23;84.39;102377.94;6112377;22;20052;-78
2022/11/12 05:39:27;;;;;;;3.22;2.20;;;;;;;5.20;84.97;102374.47;6115592;23;20025;-78
2022/11/12 05:42:50;;;;;;;3.03;1.88;;;;;;;5.22;85.44;102376.19;6115809;23;20029;-78
2022/11/12 05:46:13;;;;;;;3.17;2.05;;;;;;;5.23;84.74;102372.75;6116329;23;20029;-78
2022/11/12 05:49:35;;;;;;;3.42;1.90;;;;;;;5.16;84.95;102378.78;6115146;23;20057;-78
2022/11/12 05:52:58;;;;;;;3.72;1.98;;;;;;;5.29;84.66;102377.91;6115217;23;20064;-78
2022/11/12 05:56:21;;;;;;;3.03;2.13;;;;;;;5.41;83.92;102376.19;6112793;23;20369;-78
2022/11/12 05:59:44;;;;;;;3.53;2.75;;;;;;;5.51;83.78;102372.72;6115301;23;20064;-77
2022/11/12 06:03:08;;;;;;;4.72;2.47;;;;;;;5.26;84.43;102377.91;6114515;23;20028;-78
2022/11/12 06:06:32;;;;;;;;;;;;;;;5.17;84.82;102377.06;6114420;23;20037;-78
2022/11/12 06:09:55;;;;;;;4.18;2.55;;;;;;;5.23;84.44;102387.44;6115284;23;19916;-78
2022/11/12 06:13:18;;;;;;;3.58;2.10;;;;;;;5.29;84.58;102385.69;6115461;23;20040;-78
2022/11/12 06:16:40;;;;;;;4.33;3.50;;;;;;;5.27;84.02;102384.84;6116907;23;20029;-78
2022/11/12 06:20:03;;;;;;;5.30;3.40;;;;;;;5.26;84.70;102393.47;6114333;23;20343;-78
2022/11/12 06:23:25;;;;;;;4.72;3.35;;;;;;;5.37;84.10;102401.28;6116718;23;20080;-78
2022/11/12 06:26:47;;;;;;;4.30;3.00;;;;;;;5.20;84.81;102403.00;6115346;23;20029;-78
2022/11/12 06:30:09;;;;;;;3.60;2.40;;;;;;;5.31;84.15;102401.28;6116030;23;20021;-78
2022/11/12 06:33:32;;;;;;;5.10;2.58;;;;;;;5.33;83.76;102404.75;6110596;23;20025;-78
2022/11/12 06:36:55;;;;;;;3.80;2.60;;;;;;;5.32;84.00;102408.19;6115402;22;20096;-78
2022/11/12 06:40:18;;;;;;;5.72;2.42;;;;;;;5.16;84.81;102409.91;6116337;23;20052;-77
2022/11/12 06:43:48;;;;;;;3.80;2.65;;;;;;;5.27;84.47;102408.19;6115231;23;20115;-77
2022/11/12 06:47:15;;;;;;;3.83;2.70;;;;;;;5.19;85.35;102412.50;6114925;23;20212;-76
2022/11/12 06:50:37;;;;;;;8.18;2.60;;;;;;;4.85;86.61;102412.50;6114893;23;20068;-77
2022/11/12 06:54:00;;;;;;;4.70;2.33;;;;;;;5.09;85.77;102416.81;6113805;23;20503;-77
2022/11/12 06:57:23;;;;;;;3.10;2.17;;;;;;;5.08;85.82;102419.44;6100841;23;20140;-77
2022/11/12 07:00:46;;;;;;;5.85;2.40;;;;;;;5.34;85.12;102417.69;6116162;23;20377;-77
2022/11/12 07:04:12;;;;;;;3.42;2.40;;;;;;;5.08;85.88;102422.03;6114605;23;20353;-78
2022/11/12 07:07:34;;;;;;;3.95;2.50;;;;;;;5.13;86.02;102423.72;6114642;23;20067;-77
2022/11/12 07:10:57;;;;;;;4.00;2.70;;;;;;;5.23;86.02;102426.34;6115548;23;20063;-78
2022/11/12 07:14:19;;;;;;;4.30;3.05;;;;;;;5.29;85.37;102424.59;6116625;23;20028;-78
2022/11/12 07:17:46;;;;;;;5.05;4.00;;;;;;;5.44;84.02;102417.69;6114435;23;20025;-77
2022/11/12 07:21:12;;;;;;;5.40;4.10;;;;;;;5.53;83.78;102412.50;6115692;23;20052;-77
2022/11/12 07:24:34;;;;;;;5.18;3.90;;;;;;;5.25;85.10;102406.47;6114915;23;20492;-78
2022/11/12 07:28:01;;;;;;;10.30;8.73;;;;;;;5.23;85.33;102414.25;6115574;23;20086;-78
2022/11/12 07:31:24;;;;;;;11.20;9.73;;;;;;;5.56;84.34;102421.16;6099871;23;20084;-78
2022/11/12 07:34:49;;;;;;;9.23;7.88;;;;;;;5.65;83.45;102427.16;6114057;23;20056;-78
2022/11/12 07:38:12;;;;;;;8.35;5.03;;;;;;;5.64;83.64;102434.09;6114886;23;20032;-78
2022/11/12 07:41:39;;;;;;;20.70;12.13;;;;;;;5.30;85.09;102431.53;6116112;23;20068;-78
2022/11/12 07:45:02;;;;;;;9.45;4.97;;;;;;;5.24;86.52;102436.72;6112918;23;20028;-78
2022/11/12 07:48:26;;;;;;;8.95;5.05;;;;;;;5.23;86.63;102432.41;6114362;23;20257;-78
2022/11/12 07:51:48;;;;;;;;;;;;;;;5.49;85.29;102429.81;6115267;23;20352;-78
2022/11/12 07:55:10;;;;;;;9.55;6.30;;;;;;;5.29;85.82;102421.16;6114711;23;19931;-78
2022/11/12 07:58:33;;;;;;;10.07;4.80;;;;;;;5.37;85.89;102435.00;6114090;23;20044;-77
2022/11/12 08:01:56;;;;;;;6.57;4.10;;;;;;;5.52;85.61;102428.91;6114748;23;20531;-77
2022/11/12 08:05:20;;;;;;;4.97;2.60;;;;;;;5.53;85.87;102430.66;6116071;23;20091;-78
2022/11/12 08:08:46;;;;;;;4.60;2.58;;;;;;;5.46;86.25;102431.53;6114976;23;20076;-78
2022/11/12 08:12:11;;;;;;;3.38;2.30;;;;;;;5.46;86.45;102437.59;6114374;23;20060;-78
2022/11/12 08:15:36;;;;;;;4.45;2.97;;;;;;;5.53;86.57;102451.44;6114234;23;20025;-78
2022/11/12 08:19:02;;;;;;;4.85;2.92;;;;;;;5.48;86.94;102445.38;6115260;23;20026;-78
2022/11/12 08:22:26;;;;;;;3.20;2.33;;;;;;;5.53;87.24;102448.84;6113068;23;20056;-78
2022/11/12 08:25:48;;;;;;;4.32;2.80;;;;;;;5.48;87.13;102440.19;6111787;23;20029;-78
2022/11/12 08:29:11;;;;;;;3.95;2.33;;;;;;;5.71;85.92;102433.25;6110781;23;20029;-78
2022/11/12 08:32:35;;;;;;;4.45;3.13;;;;;;;5.60;86.99;102432.38;6110587;23;20020;-78
2022/11/12 08:36:01;;;;;;;4.75;3.20;;;;;;;5.55;87.25;102423.72;6113636;22;20029;-78
2022/11/12 08:39:25;;;;;;;5.00;2.65;;;;;;;5.66;87.03;102423.72;6113100;23;20087;-78
2022/11/12 08:42:47;;;;;;;4.35;3.28;;;;;;;5.74;87.42;102425.47;6112904;23;20349;-78
2022/11/12 08:46:09;;;;;;;4.53;3.15;;;;;;;5.76;87.83;102423.72;6114537;23;20029;-78
2022/11/12 08:49:32;;;;;;;4.00;3.20;;;;;;;5.79;87.40;102421.09;6114364;23;20075;-78
2022/11/12 08:53:00;;;;;;;5.32;3.53;;;;;;;5.63;88.09;102423.75;6099863;23;20110;-78
2022/11/12 08:56:22;;;;;;;3.72;2.88;;;;;;;5.65;88.66;102421.97;6112716;23;20025;-78
2022/11/12 08:59:45;;;;;;;8.15;3.33;;;;;;;5.93;87.20;102425.44;6115279;23;20049;-78
2022/11/12 09:03:12;;;;;;;4.20;2.85;;;;;;;5.80;87.96;102422.81;6114406;23;20449;-78
2022/11/12 09:06:34;;;;;;;5.75;3.95;;;;;;;5.97;87.08;102432.38;6113909;23;20033;-78
2022/11/12 09:09:57;;;;;;;5.05;3.72;;;;;;;5.76;87.64;102434.09;6113135;23;20025;-77
2022/11/12 09:13:20;;;;;;;4.88;3.42;;;;;;;5.87;88.51;102420.22;6100405;23;20358;-77
2022/11/12 09:16:44;;;;;;;5.13;4.47;;;;;;;5.95;87.92;102426.28;6116132;23;20029;-77
2022/11/12 09:20:07;;;;;;;7.18;3.60;;;;;;;5.83;88.55;102417.63;6115737;23;20024;-77
2022/11/12 09:23:30;;;;;;;4.65;3.55;;;;;;;6.08;88.01;102411.53;6115621;23;20084;-78
2022/11/12 09:26:54;;;;;;;5.77;4.30;;;;;;;6.00;88.38;102415.03;6113545;23;20021;-78
2022/11/12 09:30:30;;;;;;;4.47;3.40;;;;;;;6.02;88.29;102418.47;6113581;23;20299;-78
2022/11/12 09:33:52;;;;;;;4.75;3.72;;;;;;;6.07;87.72;102415.88;6115049;23;20044;-77
2022/11/12 09:37:16;;;;;;;4.77;3.77;;;;;;;6.02;87.47;102415.03;6116341;22;20032;-77
2022/11/12 09:40:52;;;;;;;;;;;;;;;6.17;86.69;102414.97;6115926;23;20311;-77
2022/11/12 09:44:18;;;;;;;6.53;3.85;;;;;;;6.07;87.28;102413.28;6115644;23;19969;-78
2022/11/12 09:47:50;;;;;;;4.15;3.47;;;;;;;6.18;87.16;102411.50;6117181;23;20249;-77
2022/11/12 09:51:33;;;;;;;5.38;3.78;;;;;;;6.13;87.33;102409.81;6115759;23;20025;-78
2022/11/12 09:55:11;;;;;;;5.30;4.10;;;;;;;6.18;87.96;102403.69;6114537;23;20037;-77
2022/11/12 09:58:33;;;;;;;6.43;3.80;;;;;;;6.17;87.65;102412.38;6113002;23;20535;-77
2022/11/12 10:02:05;;;;;;;5.82;4.22;;;;;;;6.36;87.58;102417.50;6114882;23;20041;-77
2022/11/12 10:05:41;;;;;;;6.15;4.18;;;;;;;6.46;87.91;102407.03;6115154;23;20029;-77
2022/11/12 10:09:27;;;;;;;15.63;9.30;;;;;;;6.44;86.73;102406.19;6115152;23;20551;-77
2022/11/12 10:13:11;;;;;;;8.07;4.75;;;;;;;6.27;88.30;102402.81;6114774;23;20025;-77
2022/11/12 10:16:58;;;;;;;6.18;4.43;;;;;;;6.20;88.33;102406.31;6116496;23;20025;-77
2022/11/12 10:20:29;;;;;;;5.75;4.68;;;;;;;6.17;88.47;102412.38;6117014;23;20025;-77
2022/11/12 10:23:52;;;;;;;7.30;5.07;;;;;;;6.39;87.79;102401.91;6115580;23;20040;-77
2022/11/12 10:27:17;;;;;;;;;;;;;;;6.35;88.07;102400.16;6116628;23;20025;-77
2022/11/12 10:30:40;;;;;;;;;;;;;;;6.33;88.06;102392.41;6115619;23;19982;-77
2022/11/12 10:34:12;;;;;;;5.88;4.70;;;;;;;6.31;88.32;102390.66;6116275;23;19912;-77
2022/11/12 10:37:56;;;;;;;7.20;4.70;;;;;;;6.21;88.75;102397.63;6116387;23;20033;-77
2022/11/12 10:41:32;;;;;;;5.68;4.93;;;;;;;6.23;88.74;102395.91;6119413;23;20488;-77
2022/11/12 10:45:18;;;;;;;6.40;5.38;;;;;;;6.24;88.44;102395.88;6120542;23;20393;-76
2022/11/12 10:48:53;;;;;;;5.72;4.78;;;;;;;6.27;87.96;102388.06;6116961;23;20120;-76
2022/11/12 10:52:23;;;;;;;6.60;4.72;;;;;;;6.17;88.43;102394.19;6115545;23;20092;-76
2022/11/12 10:56:03;;;;;;;7.35;5.85;;;;;;;5.79;89.75;102378.72;6114789;23;20056;-78
2022/11/12 10:59:25;;;;;;;5.72;4.95;;;;;;;5.86;89.76;102374.38;6115373;23;20033;-78
2022/11/12 11:02:54;;;;;;;7.30;5.53;;;;;;;6.02;89.86;102376.06;6116574;23;20083;-78
2022/11/12 11:06:16;;;;;;;5.80;4.85;;;;;;;6.05;89.30;102381.25;6113608;23;20353;-78
2022/11/12 11:09:52;;;;;;;6.97;5.00;;;;;;;5.82;90.64;102378.69;6116092;23;20072;-78
2022/11/12 11:13:18;;;;;;;5.28;4.68;;;;;;;6.00;89.34;102377.81;6116042;23;20167;-77
2022/11/12 11:16:57;;;;;;;9.70;4.82;;;;;;;6.11;89.53;102368.25;6114318;23;20057;-78
2022/11/12 11:20:55;;;;;;;9.35;6.15;;;;;;;5.83;90.28;102365.69;6114801;23;20025;-78
2022/11/12 11:34:17;;;;;;;7.22;5.57;;;;;;;6.25;89.31;102362.97;6151993;23;20028;-77
2022/11/12 11:38:16;;;;;;;7.80;6.18;;;;;;;6.28;88.86;102360.38;6128837;23;20033;-77
2022/11/12 11:42:24;;;;;;;7.45;6.57;;;;;;;6.24;89.64;102348.28;6090511;23;20073;-77
2022/11/12 11:46:14;;;;;;;9.32;5.43;;;;;;;6.42;89.50;102340.38;6091482;23;20084;-77
2022/11/12 11:49:58;;;;;;;6.50;5.10;;;;;;;6.55;89.15;102329.91;6092984;23;20025;-73
2022/11/12 11:53:28;;;;;;;8.85;6.70;;;;;;;6.46;89.57;102338.63;6120991;23;20463;-72
2022/11/12 11:56:54;;;;;;;15.43;12.73;;;;;;;6.73;87.64;102322.84;6120952;23;20299;-72
2022/11/12 12:00:19;;;;;;;7.72;6.90;;;;;;;6.75;88.31;102322.81;6121606;23;20083;-72
2022/11/12 12:04:07;;;;;;;7.40;6.30;;;;;;;6.61;88.53;102320.34;6120296;23;20057;-72
2022/11/12 12:08:01;;;;;;;6.97;5.90;;;;;;;6.74;88.64;102321.97;6120941;23;20024;-72
2022/11/12 12:11:34;;;;;;;6.47;5.72;;;;;;;6.70;87.83;102320.28;6122069;23;20024;-72
2022/11/12 12:15:28;;;;;;;8.43;5.97;;;;;;;6.70;87.23;102315.06;6122450;23;20028;-72
2022/11/12 12:19:48;;;;;;;10.00;6.95;;;;;;;6.54;87.97;102318.66;6122423;23;20097;-72
2022/11/12 12:23:32;;;;;;;7.75;6.95;;;;;;;6.64;87.80;102309.06;6032634;23;20030;-73
2022/11/12 12:27:10;;;;;;;13.23;11.82;;;;;;;6.67;87.98;102320.28;6077333;23;20464;-72
2022/11/12 12:30:35;;;;;;;7.03;6.32;;;;;;;6.72;88.24;102310.69;6122876;23;20029;-72
2022/11/12 12:34:17;;;;;;;7.88;6.72;;;;;;;6.87;88.06;102308.88;6122379;23;20091;-72
2022/11/12 12:37:50;;;;;;;9.10;7.40;;;;;;;6.83;88.22;102304.53;6121881;23;20033;-72
2022/11/12 12:41:28;;;;;;;8.23;7.32;;;;;;;6.75;88.87;102302.88;6161119;23;20025;-72
2022/11/12 12:45:00;;;;;;;10.25;8.60;;;;;;;6.74;88.74;102303.75;6130466;23;20408;-72
2022/11/12 12:48:44;;;;;;;8.23;7.30;;;;;;;6.83;88.69;102286.34;6150545;23;20028;-72
2022/11/12 12:52:06;;;;;;;10.85;8.77;;;;;;;6.96;88.02;102280.19;6304422;22;20026;-71
2022/11/12 12:55:38;;;;;;;10.00;8.48;;;;;;;6.93;88.22;102281.06;6307836;22;20027;-72
2022/11/12 12:59:06;;;;;;;14.00;8.60;;;;;;;6.91;88.90;102281.97;6308045;22;20025;-72
2022/11/12 13:02:36;;;;;;;10.30;9.15;;;;;;;7.15;87.90;102281.75;6307834;22;20022;-72
2022/11/12 13:06:19;;;;;;;9.68;8.65;;;;;;;6.72;89.11;102269.09;6307984;22;20022;-72
2022/11/12 13:09:42;;;;;;;11.48;10.27;;;;;;;6.68;89.72;102274.34;6307691;22;20042;-72
2022/11/12 13:13:23;;;;;;;10.32;9.27;;;;;;;6.58;90.25;102268.38;6307190;22;20052;-72
2022/11/12 13:16:49;;;;;;;12.48;9.88;;;;;;;6.67;92.93;102275.25;6307890;22;20025;-72
2022/11/12 13:20:32;;;;;;;12.18;10.98;;;;;;;6.60;91.60;102265.75;6266935;22;20433;-72
2022/11/12 13:24:05;;;;;;;11.88;10.05;;;;;;;6.78;90.86;102262.16;6275293;22;20117;-73
2022/11/12 13:28:07;;;;;;;14.70;11.20;;;;;;;6.82;90.21;102262.09;6302056;22;20025;-72
2022/11/12 13:31:29;;;;;;;11.73;9.85;;;;;;;6.96;89.75;102259.38;6301500;22;20057;-73
2022/11/12 13:35:21;;;;;;;11.80;9.30;;;;;;;7.10;88.91;102257.50;6301852;22;20026;-72
2022/11/12 13:38:43;;;;;;;10.65;9.55;;;;;;;7.02;88.87;102254.13;6300568;22;20026;-74
2022/11/12 13:46:10;;;;;;;12.77;10.52;;;;;;;7.14;88.44;102258.31;6301881;22;20026;-73
2022/11/12 13:49:34;;;;;;;10.65;9.50;;;;;;;7.02;89.09;102264.53;6301122;22;20018;-73
2022/11/12 13:52:58;;;;;;;;;;;;;;;7.25;88.50;102268.63;6298657;22;20029;-73
2022/11/12 13:56:31;;;;;;;10.45;9.43;;;;;;;7.15;87.90;102260.06;6302203;22;20379;-73
2022/11/12 14:00:07;;;;;;;10.60;9.60;;;;;;;7.13;88.51;102265.28;6301086;22;20089;-73
2022/11/12 14:03:42;;;;;;;11.82;9.73;;;;;;;7.14;89.03;102259.19;6301020;22;20026;-73
2022/11/12 14:07:13;;;;;;;12.55;10.05;;;;;;;7.28;88.99;102255.59;6300812;22;20022;-73
2022/11/12 14:11:03;;;;;;;11.93;8.82;;;;;;;7.34;87.52;102256.38;6301539;22;20350;-73
2022/11/12 14:14:46;;;;;;;11.18;10.00;;;;;;;7.19;88.41;102253.94;6300594;22;20080;-73
2022/11/12 14:18:36;;;;;;;11.88;9.68;;;;;;;7.06;88.83;102254.97;6298402;22;20080;-74
2022/11/12 14:22:13;;;;;;;12.30;9.30;;;;;;;7.20;88.39;102250.47;6301191;22;20027;-74
2022/11/12 14:25:45;;;;;;;10.75;9.65;;;;;;;7.28;88.18;102245.19;6298986;22;20026;-74
2022/11/12 14:29:19;;;;;;;13.07;10.10;;;;;;;7.34;87.66;102245.09;6301242;22;20022;-75
2022/11/12 14:32:44;;;;;;;10.30;9.27;;;;;;;7.45;87.23;102248.44;6299575;22;20022;-74
2022/11/12 14:36:13;;;;;;;11.10;9.15;;;;;;;7.41;87.51;102241.56;6301296;22;20425;-73
2022/11/12 14:39:41;;;;;;;10.65;9.43;;;;;;;7.37;87.32;102230.34;6300203;22;20473;-74
2022/11/12 14:43:04;;;;;;;57.17;15.77;;;;;;;7.32;87.76;102231.25;6302409;22;20027;-73
2022/11/12 14:46:32;;;;;;;16.85;10.18;;;;;;;7.42;87.29;102232.88;6301003;22;20075;-74
2022/11/12 14:49:55;;;;;;;14.00;9.48;;;;;;;7.53;87.14;102230.13;6301477;22;20023;-74
2022/11/12 15:09:40;;;;;;;12.68;11.07;;;;;;;7.16;89.17;102210.59;5025584;28;20389;-72
2022/11/12 15:13:07;;;;;;;23.85;10.77;;;;;;;7.10;89.59;102215.88;5028774;28;20137;-71
2022/11/12 15:16:34;;;;;;;16.98;11.23;;;;;;;7.31;88.00;102213.94;5044416;28;20557;-74
2022/11/12 15:20:02;;;;;;;64.15;13.80;;;;;;;7.37;88.19;102211.22;5026663;28;20096;-74
2022/11/12 15:23:24;;;;;;;27.10;9.93;;;;;;;7.29;88.50;102215.69;5021542;28;20384;-75
2022/11/12 15:26:49;;;;;;;25.98;10.32;;;;;;;7.35;88.15;102205.19;5010897;28;20056;-75
2022/11/12 15:30:19;;;;;;;30.35;10.52;;;;;;;7.32;88.09;102193.09;5025234;28;20053;-75
2022/11/12 15:33:50;;;;;;;13.80;9.25;;;;;;;7.31;87.76;102187.91;5025751;28;20532;-74
2022/11/12 15:37:25;;;;;;;75.50;13.15;;;;;;;7.20;88.70;102190.63;5006952;28;20045;-74
2022/11/12 15:40:54;;;;;;;42.88;12.13;;;;;;;7.09;89.32;102187.28;5006932;28;20116;-74
2022/11/12 15:44:28;;;;;;;15.80;9.25;;;;;;;7.12;89.22;102192.47;5031678;28;20063;-74
2022/11/12 15:47:51;;;;;;;10.63;9.50;;;;;;;7.10;89.51;102182.06;5045394;28;20072;-74
2022/11/12 15:51:15;;;;;;;12.40;9.90;;;;;;;7.17;89.13;102181.09;5006519;28;20639;-75
2022/11/12 15:54:37;;;;;;;;;;;;;;;7.10;89.30;102178.59;5006775;28;20049;-74
2022/11/12 15:57:59;;;;;;;11.75;7.93;;;;;;;7.18;88.62;102177.66;5006041;28;19928;-74
2022/11/12 16:01:22;;;;;;;9.40;8.45;;;;;;;7.20;88.73;102175.88;5008852;28;20060;-74
2022/11/12 16:04:44;;;;;;;30.67;15.93;;;;;;;7.16;89.73;102173.34;5020831;28;20048;-75
2022/11/12 16:08:06;;;;;;;22.30;12.82;;;;;;;7.15;89.96;102174.22;5013636;28;20080;-75
2022/11/12 16:11:37;;;;;;;10.60;8.80;;;;;;;7.09;89.66;102179.50;5000147;28;20072;-74
2022/11/12 16:15:01;;;;;;;9.32;8.07;;;;;;;7.04;89.83;102169.13;5011574;28;20056;-74
2022/11/12 16:18:25;;;;;;;27.52;15.20;;;;;;;7.09;90.73;102172.53;5000032;28;20498;-74
2022/11/12 16:21:50;;;;;;;11.95;9.80;;;;;;;7.07;90.11;102169.09;5004274;28;20524;-72
2022/11/12 16:25:13;;;;;;;10.88;8.82;;;;;;;7.10;90.53;102170.78;4991852;28;20069;-72
2022/11/12 16:28:38;;;;;;;14.60;9.20;;;;;;;7.16;90.46;102173.34;4991759;28;20045;-72
2022/11/12 16:32:03;;;;;;;10.57;8.95;;;;;;;7.08;90.38;102173.41;4995439;28;20049;-72
2022/11/12 16:35:30;;;;;;;29.92;15.52;;;;;;;7.03;91.46;102164.81;5003449;28;20491;-72
2022/11/12 16:38:55;;;;;;;16.25;10.02;;;;;;;7.28;90.78;102161.94;5003685;28;20045;-71
2022/11/12 16:42:18;;;;;;;9.13;8.02;;;;;;;7.29;89.78;102153.22;5004578;28;20081;-72
2022/11/12 16:45:42;;;;;;;8.90;7.95;;;;;;;7.18;90.27;102151.63;5003905;28;20397;-72
2022/11/12 16:49:05;;;;;;;10.05;8.85;;;;;;;7.23;89.88;102149.81;5001630;28;20044;-72
2022/11/12 16:52:28;;;;;;;9.52;7.95;;;;;;;7.04;91.11;102147.47;5003254;28;20048;-72
2022/11/12 16:55:52;;;;;;;9.75;8.75;;;;;;;7.00;91.61;102144.03;4645325;28;10001481;-72
2022/11/12 16:59:15;;;;;;;9.27;8.18;;;;;;;7.01;91.99;102145.75;5010949;28;20487;-72
2022/11/12 17:02:42;;;;;;;9.95;8.48;;;;;;;7.02;92.60;102150.09;4992128;28;20120;-71
2022/11/12 17:06:10;;;;;;;10.85;8.43;;;;;;;7.07;92.55;102148.28;4993099;28;20398;-71